Hovedside
METAR-TAF:

METAR-TAF

Lufthavner :

Léon M'ba internasjonale lufthavn

Libreville, Gabon

breddegrad: 00-27N, lengdegrad: 009-25E, høyde over havet: 12 m

Gjeldene værobservasjon

Denne rapporten ble laget for 33 minutter siden, klokken 15:30 UTC
Vind 7 kt fra Sørvest, skiftende mellom Sør-sørvest og Vest
Temperatur 27°C
Luftfuktighet 74%
Trykk 1013 hPa
Sikt 10 km eller mer
Få skyer i en høyde av 2000 ft

METAR: FOOL 191530Z 23007KT 200V270 9999 FEW020 27/22 Q1013 NOSIG

Tid: 17:03 (16:03 UTC)

Varsel

Denne rapporten ble laget for 5 timer og 3 minutter siden, klokken 11:00 UTC
Varsel gyldig fra 19. klokken 12 UTC til 20. klokken 18 UTC
Vind 7 kt fra Sør
Sikt 10 km eller mer
Spredte skyer i en høyde av 1000 ft
Brutte skyer i en høyde av 3000 ft

TAF: FOOL 191100Z 1912/2018 18007KT 9999 SCT010 BKN030

Værobservasjoner og værvarsel for over 4000 flyplasser (METAR- og TAF-rapporter).

Tilgjengelige stasjoner er representert av de røde og gule prikkene på kartet.

Hold musepekeren over prikken for å se navnet på stasjonen.

Klikk så for å se værobservasjoner og -varsler.

For å forandre kartet kan du klikke på den grønne knappen med svart kryss for å zoome inn, på den grønne knappen med strek for å zoome ut, eller på de grønne pilene for å se tilstøtende kart.


METAR-TAF: